sensor_id;sensor_type;location;lat;lon;timestamp;pressure;altitude;pressure_sealevel;temperature;humidity
77003;BME280;65939;50.060;14.288;2024-03-06T00:01:40;97274.34;;;7.91;82.25
77003;BME280;65939;50.060;14.288;2024-03-06T00:03:40;97276.94;;;7.91;81.75
77003;BME280;65939;50.060;14.288;2024-03-06T00:05:41;97279.53;;;7.91;81.70
77003;BME280;65939;50.060;14.288;2024-03-06T00:07:41;97281.34;;;7.90;81.87
77003;BME280;65939;50.060;14.288;2024-03-06T00:09:42;97291.03;;;7.88;82.17
77003;BME280;65939;50.060;14.288;2024-03-06T00:11:43;97284.31;;;7.86;81.23
77003;BME280;65939;50.060;14.288;2024-03-06T00:13:44;97284.47;;;7.84;81.20
77003;BME280;65939;50.060;14.288;2024-03-06T00:15:47;97278.75;;;7.81;80.80
77003;BME280;65939;50.060;14.288;2024-03-06T00:17:48;97279.00;;;7.78;80.59
77003;BME280;65939;50.060;14.288;2024-03-06T00:19:49;97289.00;;;7.73;81.04
77003;BME280;65939;50.060;14.288;2024-03-06T00:21:50;97291.88;;;7.70;81.31
77003;BME280;65939;50.060;14.288;2024-03-06T00:23:51;97292.97;;;7.67;81.02
77003;BME280;65939;50.060;14.288;2024-03-06T00:25:51;97301.19;;;7.62;81.46
77003;BME280;65939;50.060;14.288;2024-03-06T00:27:52;97303.09;;;7.60;81.65
77003;BME280;65939;50.060;14.288;2024-03-06T00:29:54;97300.38;;;7.62;81.89
77003;BME280;65939;50.060;14.288;2024-03-06T00:31:55;97305.56;;;7.62;81.99
77003;BME280;65939;50.060;14.288;2024-03-06T00:33:55;97304.75;;;7.61;81.19
77003;BME280;65939;50.060;14.288;2024-03-06T00:35:56;97307.59;;;7.58;81.62
77003;BME280;65939;50.060;14.288;2024-03-06T00:37:57;97314.59;;;7.58;81.57
77003;BME280;65939;50.060;14.288;2024-03-06T00:39:57;97311.28;;;7.56;82.45
77003;BME280;65939;50.060;14.288;2024-03-06T00:41:58;97311.28;;;7.56;82.59
77003;BME280;65939;50.060;14.288;2024-03-06T00:43:59;97312.94;;;7.57;82.17
77003;BME280;65939;50.060;14.288;2024-03-06T00:45:59;97315.13;;;7.61;82.80
77003;BME280;65939;50.060;14.288;2024-03-06T00:48:00;97321.69;;;7.65;81.99
77003;BME280;65939;50.060;14.288;2024-03-06T00:50:02;97317.06;;;7.69;82.16
77003;BME280;65939;50.060;14.288;2024-03-06T00:52:05;97316.22;;;7.68;82.24
77003;BME280;65939;50.060;14.288;2024-03-06T00:54:05;97319.38;;;7.62;82.70
77003;BME280;65939;50.060;14.288;2024-03-06T00:56:07;97315.13;;;7.52;83.67
77003;BME280;65939;50.060;14.288;2024-03-06T00:58:07;97321.53;;;7.38;83.24
77003;BME280;65939;50.060;14.288;2024-03-06T01:00:08;97315.50;;;7.28;84.29
77003;BME280;65939;50.060;14.288;2024-03-06T01:02:12;97316.28;;;7.18;84.33
77003;BME280;65939;50.060;14.288;2024-03-06T01:04:13;97321.59;;;7.07;85.11
77003;BME280;65939;50.060;14.288;2024-03-06T01:06:13;97323.34;;;6.97;85.58
77003;BME280;65939;50.060;14.288;2024-03-06T01:08:14;97318.00;;;6.89;86.75
77003;BME280;65939;50.060;14.288;2024-03-06T01:10:18;97318.41;;;6.84;87.13
77003;BME280;65939;50.060;14.288;2024-03-06T01:12:18;97311.03;;;6.80;86.37
77003;BME280;65939;50.060;14.288;2024-03-06T01:14:19;97306.47;;;6.72;87.62
77003;BME280;65939;50.060;14.288;2024-03-06T01:16:20;97316.28;;;6.68;88.14
77003;BME280;65939;50.060;14.288;2024-03-06T01:18:21;97314.66;;;6.67;88.23
77003;BME280;65939;50.060;14.288;2024-03-06T01:20:21;97321.75;;;6.65;88.15
77003;BME280;65939;50.060;14.288;2024-03-06T01:22:22;97325.94;;;6.57;88.64
77003;BME280;65939;50.060;14.288;2024-03-06T01:24:23;97331.06;;;6.47;89.09
77003;BME280;65939;50.060;14.288;2024-03-06T01:26:23;97328.31;;;6.39;88.90
77003;BME280;65939;50.060;14.288;2024-03-06T01:28:24;97329.50;;;6.35;89.33
77003;BME280;65939;50.060;14.288;2024-03-06T01:30:24;97332.34;;;6.32;89.29
77003;BME280;65939;50.060;14.288;2024-03-06T01:32:25;97336.16;;;6.28;90.49
77003;BME280;65939;50.060;14.288;2024-03-06T01:34:26;97328.50;;;6.26;90.36
77003;BME280;65939;50.060;14.288;2024-03-06T01:36:27;97331.22;;;6.24;90.34
77003;BME280;65939;50.060;14.288;2024-03-06T01:38:29;97336.66;;;6.21;90.32
77003;BME280;65939;50.060;14.288;2024-03-06T01:40:31;97333.38;;;6.19;91.27
77003;BME280;65939;50.060;14.288;2024-03-06T01:42:31;97334.56;;;6.15;91.26
77003;BME280;65939;50.060;14.288;2024-03-06T01:44:32;97338.25;;;6.13;91.51
77003;BME280;65939;50.060;14.288;2024-03-06T01:46:33;97336.72;;;6.10;91.28
77003;BME280;65939;50.060;14.288;2024-03-06T01:48:34;97332.59;;;6.08;91.42
77003;BME280;65939;50.060;14.288;2024-03-06T01:50:35;97336.88;;;6.09;91.23
77003;BME280;65939;50.060;14.288;2024-03-06T01:52:39;97333.81;;;6.04;91.17
77003;BME280;65939;50.060;14.288;2024-03-06T01:54:42;97340.34;;;5.98;90.92
77003;BME280;65939;50.060;14.288;2024-03-06T01:56:46;97343.38;;;5.92;91.06
77003;BME280;65939;50.060;14.288;2024-03-06T01:58:48;97335.44;;;5.84;91.47
77003;BME280;65939;50.060;14.288;2024-03-06T02:00:50;97335.91;;;5.78;91.64
77003;BME280;65939;50.060;14.288;2024-03-06T02:02:51;97336.53;;;5.70;92.37
77003;BME280;65939;50.060;14.288;2024-03-06T02:04:53;97340.44;;;5.64;92.23
77003;BME280;65939;50.060;14.288;2024-03-06T02:06:55;97341.78;;;5.59;92.66
77003;BME280;65939;50.060;14.288;2024-03-06T02:08:55;97339.66;;;5.52;92.39
77003;BME280;65939;50.060;14.288;2024-03-06T02:10:56;97343.31;;;5.50;92.62
77003;BME280;65939;50.060;14.288;2024-03-06T02:12:57;97337.56;;;5.46;92.41
77003;BME280;65939;50.060;14.288;2024-03-06T02:14:58;97343.22;;;5.40;92.49
77003;BME280;65939;50.060;14.288;2024-03-06T02:16:59;97342.63;;;5.37;92.83
77003;BME280;65939;50.060;14.288;2024-03-06T02:18:59;97335.38;;;5.31;92.87
77003;BME280;65939;50.060;14.288;2024-03-06T02:21:01;97347.84;;;5.25;93.16
77003;BME280;65939;50.060;14.288;2024-03-06T02:23:04;97337.16;;;5.19;92.97
77003;BME280;65939;50.060;14.288;2024-03-06T02:25:06;97343.50;;;5.15;93.30
77003;BME280;65939;50.060;14.288;2024-03-06T02:27:07;97341.97;;;5.12;93.60
77003;BME280;65939;50.060;14.288;2024-03-06T02:29:08;97345.53;;;5.11;93.36
77003;BME280;65939;50.060;14.288;2024-03-06T02:31:09;97346.47;;;5.10;93.44
77003;BME280;65939;50.060;14.288;2024-03-06T02:33:10;97339.91;;;5.06;93.53
77003;BME280;65939;50.060;14.288;2024-03-06T02:35:10;97347.19;;;5.01;93.42
77003;BME280;65939;50.060;14.288;2024-03-06T02:37:11;97350.94;;;4.97;94.31
77003;BME280;65939;50.060;14.288;2024-03-06T02:39:12;97351.19;;;4.94;94.39
77003;BME280;65939;50.060;14.288;2024-03-06T02:41:13;97352.38;;;4.90;94.93
77003;BME280;65939;50.060;14.288;2024-03-06T02:43:16;97355.19;;;4.87;95.50
77003;BME280;65939;50.060;14.288;2024-03-06T02:45:17;97357.09;;;4.85;95.48
77003;BME280;65939;50.060;14.288;2024-03-06T02:47:17;97356.38;;;4.83;95.77
77003;BME280;65939;50.060;14.288;2024-03-06T02:49:18;97358.94;;;4.83;95.87
77003;BME280;65939;50.060;14.288;2024-03-06T02:51:19;97365.31;;;4.78;95.68
77003;BME280;65939;50.060;14.288;2024-03-06T02:53:20;97363.78;;;4.76;95.74
77003;BME280;65939;50.060;14.288;2024-03-06T02:55:22;97358.81;;;4.73;95.94
77003;BME280;65939;50.060;14.288;2024-03-06T02:57:27;97365.09;;;4.70;96.48
77003;BME280;65939;50.060;14.288;2024-03-06T02:59:28;97362.50;;;4.70;95.86
77003;BME280;65939;50.060;14.288;2024-03-06T03:01:29;97373.44;;;4.74;95.75
77003;BME280;65939;50.060;14.288;2024-03-06T03:03:30;97364.59;;;4.76;96.21
77003;BME280;65939;50.060;14.288;2024-03-06T03:05:31;97370.13;;;4.83;96.39
77003;BME280;65939;50.060;14.288;2024-03-06T03:07:34;97370.72;;;4.87;96.35
77003;BME280;65939;50.060;14.288;2024-03-06T03:09:34;97366.25;;;4.89;96.49
77003;BME280;65939;50.060;14.288;2024-03-06T03:11:36;97367.78;;;4.91;96.96
77003;BME280;65939;50.060;14.288;2024-03-06T03:13:37;97365.78;;;4.95;96.45
77003;BME280;65939;50.060;14.288;2024-03-06T03:15:37;97366.47;;;4.97;96.70
77003;BME280;65939;50.060;14.288;2024-03-06T03:17:38;97365.41;;;4.99;97.00
77003;BME280;65939;50.060;14.288;2024-03-06T03:19:39;97366.97;;;5.02;96.56
77003;BME280;65939;50.060;14.288;2024-03-06T03:21:44;97371.75;;;5.07;96.27
77003;BME280;65939;50.060;14.288;2024-03-06T03:23:45;97377.16;;;5.15;95.59
77003;BME280;65939;50.060;14.288;2024-03-06T03:25:45;97375.06;;;5.20;94.42
77003;BME280;65939;50.060;14.288;2024-03-06T03:27:46;97376.31;;;5.25;94.44
77003;BME280;65939;50.060;14.288;2024-03-06T03:29:47;97381.03;;;5.32;94.31
77003;BME280;65939;50.060;14.288;2024-03-06T03:31:48;97384.06;;;5.37;93.57
77003;BME280;65939;50.060;14.288;2024-03-06T03:33:48;97376.28;;;5.37;93.62
77003;BME280;65939;50.060;14.288;2024-03-06T03:35:49;97377.16;;;5.37;93.44
77003;BME280;65939;50.060;14.288;2024-03-06T03:37:50;97385.81;;;5.36;93.42
77003;BME280;65939;50.060;14.288;2024-03-06T03:39:52;97387.16;;;5.31;93.91
77003;BME280;65939;50.060;14.288;2024-03-06T03:41:53;97391.03;;;5.25;94.09
77003;BME280;65939;50.060;14.288;2024-03-06T03:43:53;97384.56;;;5.19;93.80
77003;BME280;65939;50.060;14.288;2024-03-06T03:45:54;97384.69;;;5.18;93.94
77003;BME280;65939;50.060;14.288;2024-03-06T03:47:55;97387.16;;;5.19;94.57
77003;BME280;65939;50.060;14.288;2024-03-06T03:49:55;97381.16;;;5.19;93.92
77003;BME280;65939;50.060;14.288;2024-03-06T03:51:56;97379.38;;;5.19;94.24
77003;BME280;65939;50.060;14.288;2024-03-06T03:53:57;97388.91;;;5.19;93.91
77003;BME280;65939;50.060;14.288;2024-03-06T03:55:58;97382.22;;;5.16;93.72
77003;BME280;65939;50.060;14.288;2024-03-06T03:57:59;97377.88;;;5.17;94.57
77003;BME280;65939;50.060;14.288;2024-03-06T04:00:00;97385.28;;;5.21;93.92
77003;BME280;65939;50.060;14.288;2024-03-06T04:02:04;97389.50;;;5.22;93.71
77003;BME280;65939;50.060;14.288;2024-03-06T04:04:05;97388.00;;;5.20;93.32
77003;BME280;65939;50.060;14.288;2024-03-06T04:06:07;97390.00;;;5.16;93.76
77003;BME280;65939;50.060;14.288;2024-03-06T04:08:08;97393.75;;;5.12;94.17
77003;BME280;65939;50.060;14.288;2024-03-06T04:10:10;97394.09;;;5.08;93.92
77003;BME280;65939;50.060;14.288;2024-03-06T04:12:11;97389.06;;;5.06;93.71
77003;BME280;65939;50.060;14.288;2024-03-06T04:14:11;97389.06;;;5.06;94.18
77003;BME280;65939;50.060;14.288;2024-03-06T04:16:16;97396.00;;;5.06;94.14
77003;BME280;65939;50.060;14.288;2024-03-06T04:18:18;97393.06;;;5.10;94.09
77003;BME280;65939;50.060;14.288;2024-03-06T04:20:19;97393.63;;;5.14;93.39
77003;BME280;65939;50.060;14.288;2024-03-06T04:22:19;97398.44;;;5.18;93.08
77003;BME280;65939;50.060;14.288;2024-03-06T04:24:20;97396.34;;;5.23;92.59
77003;BME280;65939;50.060;14.288;2024-03-06T04:26:21;97390.22;;;5.24;93.16
77003;BME280;65939;50.060;14.288;2024-03-06T04:28:21;97398.69;;;5.26;93.23
77003;BME280;65939;50.060;14.288;2024-03-06T04:30:22;97395.75;;;5.31;93.06
77003;BME280;65939;50.060;14.288;2024-03-06T04:32:23;97397.97;;;5.36;92.53
77003;BME280;65939;50.060;14.288;2024-03-06T04:34:24;97393.34;;;5.39;91.89
77003;BME280;65939;50.060;14.288;2024-03-06T04:36:25;97396.66;;;5.41;92.47
77003;BME280;65939;50.060;14.288;2024-03-06T04:38:26;97390.88;;;5.49;91.46
77003;BME280;65939;50.060;14.288;2024-03-06T04:40:26;97395.81;;;5.52;91.56
77003;BME280;65939;50.060;14.288;2024-03-06T04:42:29;97406.19;;;5.52;91.56
77003;BME280;65939;50.060;14.288;2024-03-06T04:44:33;97404.50;;;5.51;92.04
77003;BME280;65939;50.060;14.288;2024-03-06T04:46:34;97402.63;;;5.53;90.96
77003;BME280;65939;50.060;14.288;2024-03-06T04:48:35;97409.69;;;5.51;91.39
77003;BME280;65939;50.060;14.288;2024-03-06T04:50:35;97397.81;;;5.48;91.69
77003;BME280;65939;50.060;14.288;2024-03-06T04:52:37;97405.22;;;5.53;91.37
77003;BME280;65939;50.060;14.288;2024-03-06T04:54:38;97404.75;;;5.59;91.15
77003;BME280;65939;50.060;14.288;2024-03-06T04:56:39;97404.13;;;5.67;91.10
77003;BME280;65939;50.060;14.288;2024-03-06T04:58:40;97407.97;;;5.72;90.54
77003;BME280;65939;50.060;14.288;2024-03-06T05:00:41;97414.59;;;5.76;90.49
77003;BME280;65939;50.060;14.288;2024-03-06T05:02:42;97412.25;;;5.73;90.47
77003;BME280;65939;50.060;14.288;2024-03-06T05:04:44;97413.53;;;5.68;90.93
77003;BME280;65939;50.060;14.288;2024-03-06T05:06:44;97412.72;;;5.67;90.29
77003;BME280;65939;50.060;14.288;2024-03-06T05:08:45;97408.13;;;5.71;91.52
77003;BME280;65939;50.060;14.288;2024-03-06T05:10:46;97411.03;;;5.78;90.47
77003;BME280;65939;50.060;14.288;2024-03-06T05:12:47;97411.47;;;5.83;90.14
77003;BME280;65939;50.060;14.288;2024-03-06T05:14:48;97415.97;;;5.81;90.74
77003;BME280;65939;50.060;14.288;2024-03-06T05:16:49;97408.84;;;5.73;91.37
77003;BME280;65939;50.060;14.288;2024-03-06T05:18:50;97414.34;;;5.68;90.65
77003;BME280;65939;50.060;14.288;2024-03-06T05:20:50;97411.53;;;5.71;91.32
77003;BME280;65939;50.060;14.288;2024-03-06T05:22:51;97409.41;;;5.76;91.41
77003;BME280;65939;50.060;14.288;2024-03-06T05:24:52;97421.84;;;5.83;90.30
77003;BME280;65939;50.060;14.288;2024-03-06T05:26:53;97419.41;;;5.81;90.66
77003;BME280;65939;50.060;14.288;2024-03-06T05:28:54;97430.25;;;5.75;90.72
77003;BME280;65939;50.060;14.288;2024-03-06T05:30:54;97425.66;;;5.67;91.30
77003;BME280;65939;50.060;14.288;2024-03-06T05:32:55;97428.41;;;5.66;90.91
77003;BME280;65939;50.060;14.288;2024-03-06T05:34:56;97430.28;;;5.64;91.58
77003;BME280;65939;50.060;14.288;2024-03-06T05:36:58;97428.75;;;5.61;91.23
77003;BME280;65939;50.060;14.288;2024-03-06T05:38:59;97433.00;;;5.62;91.48
77003;BME280;65939;50.060;14.288;2024-03-06T05:41:00;97436.41;;;5.63;91.09
77003;BME280;65939;50.060;14.288;2024-03-06T05:43:02;97439.81;;;5.63;91.43
77003;BME280;65939;50.060;14.288;2024-03-06T05:45:04;97445.94;;;5.62;91.97
77003;BME280;65939;50.060;14.288;2024-03-06T05:47:10;97441.59;;;5.63;91.75
77003;BME280;65939;50.060;14.288;2024-03-06T05:49:11;97442.63;;;5.60;91.92
77003;BME280;65939;50.060;14.288;2024-03-06T05:51:12;97436.75;;;5.58;91.73
77003;BME280;65939;50.060;14.288;2024-03-06T05:53:13;97439.00;;;5.63;92.21
77003;BME280;65939;50.060;14.288;2024-03-06T05:55:14;97449.22;;;5.64;91.43
77003;BME280;65939;50.060;14.288;2024-03-06T05:57:14;97450.84;;;5.65;92.17
77003;BME280;65939;50.060;14.288;2024-03-06T05:59:15;97451.56;;;5.67;91.59
77003;BME280;65939;50.060;14.288;2024-03-06T06:01:16;97453.59;;;5.64;91.70
77003;BME280;65939;50.060;14.288;2024-03-06T06:03:20;97461.47;;;5.62;92.04
77003;BME280;65939;50.060;14.288;2024-03-06T06:05:21;97464.91;;;5.63;91.98
77003;BME280;65939;50.060;14.288;2024-03-06T06:07:23;97458.91;;;5.62;91.66
77003;BME280;65939;50.060;14.288;2024-03-06T06:09:23;97471.13;;;5.60;91.32
77003;BME280;65939;50.060;14.288;2024-03-06T06:11:24;97473.72;;;5.60;91.88
77003;BME280;65939;50.060;14.288;2024-03-06T06:13:25;97471.13;;;5.60;91.50
77003;BME280;65939;50.060;14.288;2024-03-06T06:15:25;97470.88;;;5.63;92.03
77003;BME280;65939;50.060;14.288;2024-03-06T06:17:26;97483.59;;;5.66;91.59
77003;BME280;65939;50.060;14.288;2024-03-06T06:19:27;97474.06;;;5.67;92.86
77003;BME280;65939;50.060;14.288;2024-03-06T06:21:27;97475.69;;;5.68;92.37
77003;BME280;65939;50.060;14.288;2024-03-06T06:23:28;97482.53;;;5.69;92.60
77003;BME280;65939;50.060;14.288;2024-03-06T06:25:29;97481.69;;;5.68;92.62
77003;BME280;65939;50.060;14.288;2024-03-06T06:27:29;97484.44;;;5.67;92.52
77003;BME280;65939;50.060;14.288;2024-03-06T06:29:30;97487.00;;;5.67;93.00
77003;BME280;65939;50.060;14.288;2024-03-06T06:31:31;97489.47;;;5.68;92.35
77003;BME280;65939;50.060;14.288;2024-03-06T06:33:32;97487.00;;;5.67;92.16
77003;BME280;65939;50.060;14.288;2024-03-06T06:35:36;97493.25;;;5.64;91.95
77003;BME280;65939;50.060;14.288;2024-03-06T06:37:37;97492.19;;;5.67;92.69
77003;BME280;65939;50.060;14.288;2024-03-06T06:39:38;97491.81;;;5.71;92.69
77003;BME280;65939;50.060;14.288;2024-03-06T06:41:39;97498.31;;;5.77;91.98
77003;BME280;65939;50.060;14.288;2024-03-06T06:43:39;97499.00;;;5.79;91.96
77003;BME280;65939;50.060;14.288;2024-03-06T06:45:42;97501.47;;;5.81;92.07
77003;BME280;65939;50.060;14.288;2024-03-06T06:47:43;97500.28;;;5.85;92.22
77003;BME280;65939;50.060;14.288;2024-03-06T06:49:43;97502.06;;;5.84;92.31
77003;BME280;65939;50.060;14.288;2024-03-06T06:51:45;97509.59;;;5.87;91.71
77003;BME280;65939;50.060;14.288;2024-03-06T06:53:45;97508.06;;;5.85;92.21
77003;BME280;65939;50.060;14.288;2024-03-06T06:55:46;97509.94;;;5.83;92.29
77003;BME280;65939;50.060;14.288;2024-03-06T06:57:47;97511.94;;;5.79;91.65
77003;BME280;65939;50.060;14.288;2024-03-06T06:59:47;97517.03;;;5.81;91.75
77003;BME280;65939;50.060;14.288;2024-03-06T07:01:48;97514.31;;;5.82;91.59
77003;BME280;65939;50.060;14.288;2024-03-06T07:03:48;97518.66;;;5.82;92.88
77003;BME280;65939;50.060;14.288;2024-03-06T07:05:49;97515.94;;;5.83;92.93
77003;BME280;65939;50.060;14.288;2024-03-06T07:07:50;97520.06;;;5.86;92.80
77003;BME280;65939;50.060;14.288;2024-03-06T07:09:50;97518.44;;;5.85;92.35
77003;BME280;65939;50.060;14.288;2024-03-06T07:11:51;97515.13;;;5.83;93.07
77003;BME280;65939;50.060;14.288;2024-03-06T07:13:52;97525.38;;;5.84;92.70
77003;BME280;65939;50.060;14.288;2024-03-06T07:15:52;97527.59;;;5.89;92.87
77003;BME280;65939;50.060;14.288;2024-03-06T07:17:53;97523.75;;;5.94;92.70
77003;BME280;65939;50.060;14.288;2024-03-06T07:19:54;97528.44;;;6.00;92.92
77003;BME280;65939;50.060;14.288;2024-03-06T07:21:54;97536.69;;;6.06;92.80
77003;BME280;65939;50.060;14.288;2024-03-06T07:23:55;97533.00;;;6.08;92.81
77003;BME280;65939;50.060;14.288;2024-03-06T07:25:56;97525.22;;;6.08;92.85
77003;BME280;65939;50.060;14.288;2024-03-06T07:27:58;97529.59;;;6.08;92.56
77003;BME280;65939;50.060;14.288;2024-03-06T07:29:58;97543.50;;;6.07;92.18
77003;BME280;65939;50.060;14.288;2024-03-06T07:31:59;97551.41;;;6.05;92.80
77003;BME280;65939;50.060;14.288;2024-03-06T07:34:01;97549.97;;;6.01;92.45
77003;BME280;65939;50.060;14.288;2024-03-06T07:36:03;97544.56;;;6.04;92.86
77003;BME280;65939;50.060;14.288;2024-03-06T07:38:04;97540.19;;;6.05;92.88
77003;BME280;65939;50.060;14.288;2024-03-06T07:40:06;97546.91;;;6.07;92.86
77003;BME280;65939;50.060;14.288;2024-03-06T07:42:07;97545.47;;;6.14;92.21
77003;BME280;65939;50.060;14.288;2024-03-06T07:44:08;97545.00;;;6.20;92.18
77003;BME280;65939;50.060;14.288;2024-03-06T07:46:09;97549.00;;;6.24;91.54
77003;BME280;65939;50.060;14.288;2024-03-06T07:48:10;97553.69;;;6.31;92.03
77003;BME280;65939;50.060;14.288;2024-03-06T07:50:11;97548.03;;;6.37;92.35
77003;BME280;65939;50.060;14.288;2024-03-06T07:52:12;97555.06;;;6.46;91.99
77003;BME280;65939;50.060;14.288;2024-03-06T07:54:14;97555.97;;;6.56;91.76
77003;BME280;65939;50.060;14.288;2024-03-06T07:56:15;97567.50;;;6.63;91.13
77003;BME280;65939;50.060;14.288;2024-03-06T07:58:15;97567.13;;;6.68;90.91
77003;BME280;65939;50.060;14.288;2024-03-06T08:00:17;97564.84;;;6.75;89.66
77003;BME280;65939;50.060;14.288;2024-03-06T08:02:20;97570.22;;;6.83;89.38
77003;BME280;65939;50.060;14.288;2024-03-06T08:04:22;97577.66;;;6.87;90.09
77003;BME280;65939;50.060;14.288;2024-03-06T08:06:23;97569.50;;;6.92;89.71
77003;BME280;65939;50.060;14.288;2024-03-06T08:08:24;97574.94;;;6.89;89.16
77003;BME280;65939;50.060;14.288;2024-03-06T08:10:25;97575.06;;;6.87;89.36
77003;BME280;65939;50.060;14.288;2024-03-06T08:12:26;97573.84;;;6.91;89.44
77003;BME280;65939;50.060;14.288;2024-03-06T08:14:27;97573.09;;;7.01;88.37
77003;BME280;65939;50.060;14.288;2024-03-06T08:16:27;97571.63;;;7.08;88.13
77003;BME280;65939;50.060;14.288;2024-03-06T08:18:28;97578.25;;;7.12;88.14
77003;BME280;65939;50.060;14.288;2024-03-06T08:20:29;97584.25;;;7.12;87.13
77003;BME280;65939;50.060;14.288;2024-03-06T08:22:30;97582.09;;;7.17;87.24
77003;BME280;65939;50.060;14.288;2024-03-06T08:24:31;97588.31;;;7.26;87.33
77003;BME280;65939;50.060;14.288;2024-03-06T08:26:32;97584.94;;;7.35;87.58
77003;BME280;65939;50.060;14.288;2024-03-06T08:28:32;97590.56;;;7.40;87.44
77003;BME280;65939;50.060;14.288;2024-03-06T08:30:33;97590.31;;;7.43;86.91
77003;BME280;65939;50.060;14.288;2024-03-06T08:32:35;97587.97;;;7.40;85.83
77003;BME280;65939;50.060;14.288;2024-03-06T08:34:36;97591.25;;;7.42;87.00
77003;BME280;65939;50.060;14.288;2024-03-06T08:36:37;97585.56;;;7.49;86.96
77003;BME280;65939;50.060;14.288;2024-03-06T08:38:37;97587.75;;;7.53;86.66
77003;BME280;65939;50.060;14.288;2024-03-06T08:40:38;97590.56;;;7.61;86.85
77003;BME280;65939;50.060;14.288;2024-03-06T08:42:39;97588.53;;;7.75;86.92
77003;BME280;65939;50.060;14.288;2024-03-06T08:44:40;97589.84;;;7.90;86.41
77003;BME280;65939;50.060;14.288;2024-03-06T08:46:40;97587.97;;;8.02;85.82
77003;BME280;65939;50.060;14.288;2024-03-06T08:48:42;97583.47;;;8.13;84.64
77003;BME280;65939;50.060;14.288;2024-03-06T08:50:42;97578.56;;;8.20;84.03
77003;BME280;65939;50.060;14.288;2024-03-06T08:52:43;97592.13;;;8.24;84.62
77003;BME280;65939;50.060;14.288;2024-03-06T08:54:44;97587.78;;;8.34;84.11
77003;BME280;65939;50.060;14.288;2024-03-06T08:56:44;97583.84;;;8.49;84.33
77003;BME280;65939;50.060;14.288;2024-03-06T08:58:45;97592.06;;;8.64;84.42
77003;BME280;65939;50.060;14.288;2024-03-06T09:00:46;97592.50;;;8.69;82.86
77003;BME280;65939;50.060;14.288;2024-03-06T09:02:47;97588.41;;;8.76;82.17
77003;BME280;65939;50.060;14.288;2024-03-06T09:04:47;97586.75;;;8.85;82.01
77003;BME280;65939;50.060;14.288;2024-03-06T09:06:48;97578.66;;;8.88;82.22
77003;BME280;65939;50.060;14.288;2024-03-06T09:08:51;97583.44;;;8.93;82.07
77003;BME280;65939;50.060;14.288;2024-03-06T09:10:52;97583.19;;;8.96;81.48
77003;BME280;65939;50.060;14.288;2024-03-06T09:12:53;97584.25;;;9.03;80.84
77003;BME280;65939;50.060;14.288;2024-03-06T09:14:53;97591.81;;;9.06;80.97
77003;BME280;65939;50.060;14.288;2024-03-06T09:16:54;97578.09;;;9.14;80.94
77003;BME280;65939;50.060;14.288;2024-03-06T09:18:55;97581.50;;;9.24;80.66
77003;BME280;65939;50.060;14.288;2024-03-06T09:20:55;97576.00;;;9.27;80.62
77003;BME280;65939;50.060;14.288;2024-03-06T09:22:56;97580.41;;;9.17;80.13
77003;BME280;65939;50.060;14.288;2024-03-06T09:25:00;97586.06;;;9.02;80.18
77003;BME280;65939;50.060;14.288;2024-03-06T09:27:01;97584.56;;;8.90;80.46
77003;BME280;65939;50.060;14.288;2024-03-06T09:29:02;97583.47;;;8.83;80.28
77003;BME280;65939;50.060;14.288;2024-03-06T09:31:03;97595.13;;;8.79;80.66
77003;BME280;65939;50.060;14.288;2024-03-06T09:33:04;97589.50;;;8.74;80.36
77003;BME280;65939;50.060;14.288;2024-03-06T09:35:06;97593.47;;;8.78;80.58
77003;BME280;65939;50.060;14.288;2024-03-06T09:37:07;97591.56;;;8.80;79.89
77003;BME280;65939;50.060;14.288;2024-03-06T09:39:07;97594.69;;;8.83;79.81
77003;BME280;65939;50.060;14.288;2024-03-06T09:41:08;97596.06;;;8.87;79.85
77003;BME280;65939;50.060;14.288;2024-03-06T09:43:09;97594.97;;;8.90;79.27
77003;BME280;65939;50.060;14.288;2024-03-06T09:45:10;97594.84;;;8.92;79.67
77003;BME280;65939;50.060;14.288;2024-03-06T09:47:13;97595.53;;;8.94;79.76
77003;BME280;65939;50.060;14.288;2024-03-06T09:49:19;97596.19;;;8.96;79.72
77003;BME280;65939;50.060;14.288;2024-03-06T09:51:20;97602.50;;;9.03;78.92
77003;BME280;65939;50.060;14.288;2024-03-06T09:53:21;97603.75;;;9.08;78.70
77003;BME280;65939;50.060;14.288;2024-03-06T09:55:23;97602.34;;;9.14;78.12
77003;BME280;65939;50.060;14.288;2024-03-06T09:57:24;97603.31;;;9.23;78.63
77003;BME280;65939;50.060;14.288;2024-03-06T09:59:25;97608.63;;;9.31;78.00
77003;BME280;65939;50.060;14.288;2024-03-06T10:01:27;97602.06;;;9.37;78.35
77003;BME280;65939;50.060;14.288;2024-03-06T10:03:29;97604.38;;;9.40;78.18
77003;BME280;65939;50.060;14.288;2024-03-06T10:05:30;97601.78;;;9.40;78.28
77003;BME280;65939;50.060;14.288;2024-03-06T10:07:31;97605.88;;;9.42;78.16
77003;BME280;65939;50.060;14.288;2024-03-06T10:09:32;97605.59;;;9.45;78.06
77003;BME280;65939;50.060;14.288;2024-03-06T10:11:39;97607.66;;;9.42;77.65
77003;BME280;65939;50.060;14.288;2024-03-06T10:13:39;97604.22;;;9.41;77.69
77003;BME280;65939;50.060;14.288;2024-03-06T10:15:40;97616.44;;;9.41;77.63
77003;BME280;65939;50.060;14.288;2024-03-06T10:17:41;97613.56;;;9.34;76.75
77003;BME280;65939;50.060;14.288;2024-03-06T10:19:42;97614.94;;;9.28;77.55
77003;BME280;65939;50.060;14.288;2024-03-06T10:21:51;97612.59;;;9.35;76.97
77003;BME280;65939;50.060;14.288;2024-03-06T10:23:57;97612.31;;;9.48;77.25
77003;BME280;65939;50.060;14.288;2024-03-06T10:25:58;97618.19;;;9.59;76.75
77003;BME280;65939;50.060;14.288;2024-03-06T10:28:07;97614.75;;;9.59;76.42
77003;BME280;65939;50.060;14.288;2024-03-06T10:30:08;97615.72;;;9.58;75.68
77003;BME280;65939;50.060;14.288;2024-03-06T10:32:16;97608.56;;;9.60;76.55
77003;BME280;65939;50.060;14.288;2024-03-06T10:34:19;97613.38;;;9.65;75.91
77003;BME280;65939;50.060;14.288;2024-03-06T10:36:20;97611.06;;;9.62;74.91
77003;BME280;65939;50.060;14.288;2024-03-06T10:38:23;97609.81;;;9.56;74.53
77003;BME280;65939;50.060;14.288;2024-03-06T10:40:27;97610.78;;;9.65;74.91
77003;BME280;65939;50.060;14.288;2024-03-06T10:42:30;97618.13;;;9.79;74.76